createdAt,value
2022-12-12T00:01:41.847Z,8.00
2022-12-12T00:04:12.437Z,8.70
2022-12-12T00:06:42.901Z,8.30
2022-12-12T00:09:17.482Z,8.60
2022-12-12T00:11:50.864Z,10.10
2022-12-12T00:14:22.060Z,9.60
2022-12-12T00:16:55.887Z,8.60
2022-12-12T00:19:26.367Z,7.80
2022-12-12T00:21:58.234Z,7.60
2022-12-12T00:24:28.745Z,9.00
2022-12-12T00:27:01.895Z,8.10
2022-12-12T00:29:37.706Z,9.20
2022-12-12T00:32:08.245Z,9.30
2022-12-12T00:34:38.447Z,9.30
2022-12-12T00:37:09.005Z,9.10
2022-12-12T00:39:39.665Z,9.00
2022-12-12T00:42:20.747Z,8.20
2022-12-12T00:44:51.285Z,9.10
2022-12-12T00:47:21.495Z,8.90
2022-12-12T00:49:51.964Z,9.90
2022-12-12T00:52:24.237Z,8.90
2022-12-12T00:54:54.578Z,8.50
2022-12-12T00:57:26.795Z,8.40
2022-12-12T00:59:57.278Z,7.70
2022-12-12T01:02:30.637Z,8.30
2022-12-12T01:05:06.930Z,8.00
2022-12-12T01:07:37.486Z,8.90
2022-12-12T01:10:08.817Z,9.20
2022-12-12T01:12:43.697Z,7.80
2022-12-12T01:15:14.830Z,8.40
2022-12-12T01:17:46.576Z,7.80
2022-12-12T01:20:21.046Z,8.20
2022-12-12T01:22:51.820Z,8.40
2022-12-12T01:25:28.199Z,8.80
2022-12-12T01:28:00.337Z,8.60
2022-12-12T01:30:31.415Z,7.90
2022-12-12T01:33:02.057Z,8.10
2022-12-12T01:35:34.149Z,7.60
2022-12-12T01:38:07.965Z,7.50
2022-12-12T01:40:43.031Z,7.60
2022-12-12T01:43:18.036Z,7.90
2022-12-12T01:46:01.290Z,8.70
2022-12-12T01:48:41.615Z,10.10
2022-12-12T01:53:54.775Z,8.10
2022-12-12T01:56:26.004Z,7.70
2022-12-12T01:58:58.047Z,6.70
2022-12-12T02:01:35.658Z,7.50
2022-12-12T02:04:06.244Z,7.50
2022-12-12T02:06:40.937Z,7.60
2022-12-12T02:09:17.165Z,8.50
2022-12-12T02:11:51.605Z,8.00
2022-12-12T02:14:35.565Z,7.20
2022-12-12T02:17:21.136Z,7.50
2022-12-12T02:22:59.306Z,6.10
2022-12-12T02:25:54.474Z,7.50
2022-12-12T02:29:09.764Z,8.20
2022-12-12T02:31:53.814Z,6.50
2022-12-12T02:34:38.465Z,5.80
2022-12-12T02:37:42.883Z,6.30
2022-12-12T02:40:16.185Z,6.50
2022-12-12T02:42:56.740Z,7.00
2022-12-12T02:45:42.355Z,6.60
2022-12-12T02:48:37.182Z,6.70
2022-12-12T02:51:15.598Z,6.20
2022-12-12T02:53:47.265Z,5.30
2022-12-12T02:56:45.698Z,5.80
2022-12-12T02:59:32.562Z,6.20
2022-12-12T03:02:17.401Z,5.80
2022-12-12T03:05:36.057Z,5.30
2022-12-12T03:08:46.194Z,6.00
2022-12-12T03:13:49.360Z,4.80
2022-12-12T03:17:11.176Z,5.50
2022-12-12T03:20:07.801Z,4.80
2022-12-12T03:22:55.055Z,4.60
2022-12-12T03:25:44.409Z,4.80
2022-12-12T03:28:43.970Z,4.90
2022-12-12T03:31:18.150Z,5.10
2022-12-12T03:33:59.050Z,4.70
2022-12-12T03:37:02.565Z,4.30
2022-12-12T03:39:43.864Z,4.20
2022-12-12T03:42:28.707Z,4.20
2022-12-12T03:45:15.915Z,4.10
2022-12-12T03:48:06.697Z,5.00
2022-12-12T03:50:47.272Z,4.50
2022-12-12T03:53:22.848Z,4.50
2022-12-12T03:56:25.875Z,4.00
2022-12-12T03:59:07.046Z,4.30
2022-12-12T04:01:50.664Z,4.50
2022-12-12T04:04:41.822Z,4.70
2022-12-12T04:07:22.655Z,4.30
2022-12-12T04:10:10.075Z,3.70
2022-12-12T04:13:14.069Z,3.80
2022-12-12T04:16:05.063Z,3.80
2022-12-12T04:18:51.147Z,4.40
2022-12-12T04:22:19.698Z,3.40
2022-12-12T04:25:01.319Z,3.70
2022-12-12T04:27:51.098Z,4.20
2022-12-12T04:30:22.787Z,3.50
2022-12-12T04:33:15.215Z,4.10
2022-12-12T04:35:52.784Z,3.60
2022-12-12T04:38:27.435Z,3.40
2022-12-12T04:41:01.253Z,3.40
2022-12-12T04:43:43.836Z,3.40
2022-12-12T04:46:22.357Z,3.40
2022-12-12T04:48:56.648Z,3.80
2022-12-12T04:51:36.990Z,4.80
2022-12-12T04:54:57.287Z,3.00
2022-12-12T04:57:41.377Z,3.40
2022-12-12T05:00:16.294Z,3.10
2022-12-12T05:03:10.143Z,3.30
2022-12-12T05:05:49.517Z,3.10
2022-12-12T05:08:39.863Z,2.80
2022-12-12T05:11:11.227Z,2.90
2022-12-12T05:13:47.387Z,3.00
2022-12-12T05:16:34.931Z,3.00
2022-12-12T05:19:08.612Z,3.10
2022-12-12T05:21:50.464Z,2.80
2022-12-12T05:24:23.056Z,3.30
2022-12-12T05:26:53.447Z,2.70
2022-12-12T05:29:24.284Z,2.80
2022-12-12T05:31:56.565Z,2.30
2022-12-12T05:34:28.226Z,2.30
2022-12-12T05:36:58.895Z,2.40
2022-12-12T05:39:29.443Z,2.80
2022-12-12T05:42:05.113Z,2.40
2022-12-12T05:44:35.720Z,2.40
2022-12-12T05:47:07.324Z,2.50
2022-12-12T05:49:41.151Z,2.60
2022-12-12T05:52:14.064Z,2.50
2022-12-12T05:54:44.557Z,2.70
2022-12-12T05:57:14.864Z,2.50
2022-12-12T05:59:45.515Z,2.30
2022-12-12T06:02:19.825Z,2.20
2022-12-12T06:04:57.043Z,1.70
2022-12-12T06:07:27.646Z,1.90
2022-12-12T06:09:59.527Z,2.30
2022-12-12T06:12:33.542Z,2.00
2022-12-12T06:15:07.859Z,2.30
2022-12-12T06:17:45.609Z,2.20
2022-12-12T06:20:16.026Z,2.30
2022-12-12T06:22:52.033Z,2.00
2022-12-12T06:25:30.030Z,2.20
2022-12-12T06:28:00.503Z,2.30
2022-12-12T06:30:30.984Z,2.30
2022-12-12T06:33:01.625Z,2.00
2022-12-12T06:35:32.406Z,2.00
2022-12-12T06:38:02.969Z,2.10
2022-12-12T06:40:33.575Z,1.70
2022-12-12T06:43:04.159Z,2.10
2022-12-12T06:45:34.540Z,2.20
2022-12-12T06:48:07.748Z,2.00
2022-12-12T06:50:44.892Z,2.00
2022-12-12T06:53:15.214Z,2.50
2022-12-12T06:55:46.985Z,2.20
2022-12-12T06:58:18.507Z,2.30
2022-12-12T07:00:56.007Z,2.00
2022-12-12T07:03:29.735Z,1.90
2022-12-12T07:06:03.459Z,2.00
2022-12-12T07:08:43.421Z,2.10
2022-12-12T07:11:34.994Z,2.20
2022-12-12T07:14:10.471Z,3.20
2022-12-12T07:16:42.434Z,2.20
2022-12-12T07:19:12.609Z,2.30
2022-12-12T07:21:43.260Z,2.40
2022-12-12T07:24:18.195Z,2.40
2022-12-12T07:26:55.855Z,2.30
2022-12-12T07:29:28.026Z,2.80
2022-12-12T07:32:02.906Z,2.90
2022-12-12T07:34:33.583Z,2.80
2022-12-12T07:37:05.633Z,4.20
2022-12-12T07:39:37.620Z,3.20
2022-12-12T07:42:08.322Z,3.90
2022-12-12T07:44:44.714Z,3.20
2022-12-12T07:47:16.389Z,2.80
2022-12-12T07:49:46.813Z,2.50
2022-12-12T07:52:18.472Z,2.60
2022-12-12T07:54:54.056Z,3.00
2022-12-12T07:57:24.676Z,3.30
2022-12-12T07:59:55.329Z,2.80
2022-12-12T08:02:30.885Z,2.60
2022-12-12T08:05:04.688Z,3.50
2022-12-12T08:07:39.611Z,3.30
2022-12-12T08:10:10.795Z,3.00
2022-12-12T08:12:41.712Z,2.60
2022-12-12T08:15:18.514Z,3.20
2022-12-12T08:17:52.318Z,4.50
2022-12-12T08:20:23.755Z,3.20
2022-12-12T08:22:55.541Z,4.00
2022-12-12T08:25:26.367Z,3.70
2022-12-12T08:27:59.825Z,7.00
2022-12-12T08:30:33.226Z,4.70
2022-12-12T08:33:07.965Z,5.50
2022-12-12T08:35:38.816Z,7.10
2022-12-12T08:38:09.001Z,7.40
2022-12-12T08:43:12.431Z,4.40
2022-12-12T08:45:42.901Z,4.30
2022-12-12T08:48:18.327Z,3.70
2022-12-12T08:50:56.794Z,3.90
2022-12-12T08:53:27.865Z,3.90
2022-12-12T08:56:00.791Z,3.50
2022-12-12T08:58:37.112Z,3.40
2022-12-12T09:01:19.514Z,3.90
2022-12-12T09:03:53.334Z,4.70
2022-12-12T09:06:25.037Z,4.00
2022-12-12T09:08:56.835Z,3.70
2022-12-12T09:11:30.873Z,4.10
2022-12-12T09:14:01.744Z,4.40
2022-12-12T09:16:35.929Z,4.40
2022-12-12T09:19:08.178Z,4.20
2022-12-12T09:21:38.729Z,4.40
2022-12-12T09:24:09.727Z,4.30
2022-12-12T09:26:40.285Z,5.00
2022-12-12T09:29:13.257Z,4.00
2022-12-12T09:31:50.273Z,3.80
2022-12-12T09:34:23.487Z,4.40
2022-12-12T09:36:53.922Z,4.80
2022-12-12T09:39:26.527Z,4.40
2022-12-12T09:41:57.304Z,4.60
2022-12-12T09:44:28.429Z,4.10
2022-12-12T09:47:05.743Z,4.60
2022-12-12T09:49:55.921Z,5.40
2022-12-12T09:52:38.905Z,4.50
2022-12-12T09:55:42.438Z,4.10
2022-12-12T09:58:32.420Z,3.60
2022-12-12T10:01:12.920Z,4.20
2022-12-12T10:03:56.079Z,4.50
2022-12-12T10:06:56.841Z,4.10
2022-12-12T10:09:27.215Z,3.90
2022-12-12T10:12:02.151Z,3.50
2022-12-12T10:14:44.396Z,4.30
2022-12-12T10:17:24.323Z,4.00
2022-12-12T10:20:15.859Z,4.10
2022-12-12T10:23:21.380Z,3.90
2022-12-12T10:26:09.212Z,3.90
2022-12-12T10:28:40.402Z,3.90
2022-12-12T10:31:35.759Z,4.20
2022-12-12T10:34:30.858Z,3.80
2022-12-12T10:37:22.303Z,4.60
2022-12-12T10:40:20.761Z,3.80
2022-12-12T10:43:13.390Z,4.00
2022-12-12T10:46:22.594Z,5.00
2022-12-12T10:48:54.188Z,4.90
2022-12-12T10:51:31.675Z,4.10
2022-12-12T10:54:02.101Z,3.90
2022-12-12T10:56:35.529Z,3.90
2022-12-12T10:59:24.447Z,4.70
2022-12-12T11:02:10.871Z,4.40
2022-12-12T11:04:41.717Z,4.20
2022-12-12T11:07:23.477Z,3.80
2022-12-12T11:09:59.018Z,4.00
2022-12-12T11:12:38.471Z,4.70
2022-12-12T11:15:18.073Z,4.60
2022-12-12T11:17:48.538Z,4.50
2022-12-12T11:20:23.777Z,3.90
2022-12-12T11:22:57.419Z,4.40
2022-12-12T11:25:35.308Z,4.70
2022-12-12T11:28:06.995Z,5.20
2022-12-12T11:30:45.237Z,5.10
2022-12-12T11:33:24.452Z,4.60
2022-12-12T11:36:01.751Z,5.80
2022-12-12T11:38:40.450Z,5.80
2022-12-12T11:41:14.053Z,5.30
2022-12-12T11:43:51.668Z,4.90
2022-12-12T11:46:34.069Z,5.50
2022-12-12T11:49:08.850Z,4.90
2022-12-12T11:51:43.628Z,4.40
2022-12-12T11:54:33.951Z,6.40
2022-12-12T11:57:15.610Z,6.20
2022-12-12T12:00:08.046Z,6.60
2022-12-12T12:02:50.478Z,4.90
2022-12-12T12:05:39.722Z,5.40
2022-12-12T12:08:56.485Z,6.30
2022-12-12T12:11:52.548Z,6.00
2022-12-12T12:14:52.288Z,4.90
2022-12-12T12:17:49.156Z,5.30
2022-12-12T12:20:33.276Z,9.00
2022-12-12T12:23:14.635Z,7.30
2022-12-12T12:26:14.996Z,5.60
2022-12-12T12:28:57.544Z,5.00
2022-12-12T12:31:41.169Z,6.50
2022-12-12T12:34:31.543Z,6.80
2022-12-12T12:37:18.202Z,6.00
2022-12-12T12:39:51.331Z,5.80
2022-12-12T12:42:49.791Z,6.40
2022-12-12T12:45:56.426Z,5.70
2022-12-12T12:48:32.364Z,7.10
2022-12-12T12:51:03.011Z,6.30
2022-12-12T12:53:52.552Z,5.60
2022-12-12T12:56:38.586Z,5.50
2022-12-12T12:59:23.517Z,5.40
2022-12-12T13:02:06.190Z,6.30
2022-12-12T13:05:11.779Z,6.10
2022-12-12T13:08:04.773Z,5.60
2022-12-12T13:10:37.510Z,5.40
2022-12-12T13:13:39.390Z,5.40
2022-12-12T13:16:18.249Z,6.00
2022-12-12T13:18:52.362Z,6.10
2022-12-12T13:21:35.125Z,5.20
2022-12-12T13:24:11.618Z,5.00
2022-12-12T13:26:59.005Z,5.50
2022-12-12T13:29:38.234Z,5.50
2022-12-12T13:32:36.017Z,5.30
2022-12-12T13:35:12.727Z,5.90
2022-12-12T13:37:59.315Z,5.00
2022-12-12T13:40:38.070Z,5.70
2022-12-12T13:43:26.792Z,4.90
2022-12-12T13:45:57.782Z,5.10
2022-12-12T13:48:28.688Z,4.80
2022-12-12T13:51:36.297Z,4.40
2022-12-12T13:54:13.147Z,4.00
2022-12-12T13:56:45.615Z,4.80
2022-12-12T13:59:25.689Z,4.80
2022-12-12T14:02:04.690Z,5.20
2022-12-12T14:04:41.481Z,5.30
2022-12-12T14:07:19.907Z,6.70
2022-12-12T14:09:54.497Z,5.50
2022-12-12T14:12:33.599Z,4.10
2022-12-12T14:15:33.025Z,4.30
2022-12-12T14:18:04.787Z,4.40
2022-12-12T14:20:41.600Z,4.40
2022-12-12T14:23:28.020Z,4.50
2022-12-12T14:26:00.493Z,4.90
2022-12-12T14:28:35.263Z,5.50
2022-12-12T14:31:07.168Z,6.70
2022-12-12T14:33:51.057Z,6.80
2022-12-12T14:36:40.649Z,6.80
2022-12-12T14:39:30.017Z,7.30
2022-12-12T14:42:09.386Z,9.60
2022-12-12T14:44:50.665Z,7.70
2022-12-12T14:47:21.643Z,9.40
2022-12-12T14:50:10.669Z,9.70
2022-12-12T14:52:46.509Z,13.50
2022-12-12T14:55:19.636Z,11.10
2022-12-12T14:57:50.814Z,10.40
2022-12-12T15:00:22.707Z,11.80
2022-12-12T15:02:54.836Z,12.90
2022-12-12T15:05:28.885Z,12.90
2022-12-12T15:08:10.547Z,13.00
2022-12-12T15:10:41.077Z,13.60
2022-12-12T15:13:21.577Z,17.60
2022-12-12T15:15:54.124Z,16.50
2022-12-12T15:18:26.211Z,14.00
2022-12-12T15:20:58.983Z,16.00
2022-12-12T15:23:30.144Z,12.80
2022-12-12T15:26:00.548Z,13.30
2022-12-12T15:28:36.002Z,13.20
2022-12-12T15:31:19.513Z,17.30
2022-12-12T15:33:51.804Z,11.50
2022-12-12T15:36:33.571Z,11.60
2022-12-12T15:39:17.842Z,13.10
2022-12-12T15:41:51.438Z,10.10
2022-12-12T15:44:23.371Z,7.30
2022-12-12T15:46:54.274Z,8.90
2022-12-12T15:49:52.157Z,9.50
2022-12-12T15:52:32.531Z,8.20
2022-12-12T15:55:06.882Z,9.70
2022-12-12T15:57:51.306Z,9.30
2022-12-12T16:00:38.850Z,8.50
2022-12-12T16:03:29.589Z,6.70
2022-12-12T16:06:18.249Z,5.60
2022-12-12T16:09:13.790Z,5.20
2022-12-12T16:11:53.470Z,6.00
2022-12-12T16:14:43.337Z,4.70
2022-12-12T16:17:25.028Z,4.90
2022-12-12T16:20:03.956Z,5.30
2022-12-12T16:22:52.687Z,5.00
2022-12-12T16:25:33.207Z,5.20
2022-12-12T16:28:10.133Z,5.10
2022-12-12T16:30:45.587Z,5.20
2022-12-12T16:33:48.753Z,5.30
2022-12-12T16:36:21.628Z,6.50
2022-12-12T16:38:52.088Z,7.70
2022-12-12T16:41:23.295Z,9.20
2022-12-12T16:43:53.810Z,8.20
2022-12-12T16:46:29.926Z,9.70
2022-12-12T16:49:05.114Z,9.70
2022-12-12T16:51:38.304Z,9.30
2022-12-12T16:54:15.569Z,9.40
2022-12-12T16:56:52.793Z,9.80
2022-12-12T16:59:24.570Z,9.30
2022-12-12T17:01:59.695Z,10.60
2022-12-12T17:04:32.249Z,9.40
2022-12-12T17:07:08.396Z,10.70
2022-12-12T17:09:39.213Z,10.80
2022-12-12T17:12:15.875Z,12.60
2022-12-12T17:14:54.397Z,13.00
2022-12-12T17:17:25.614Z,13.40
2022-12-12T17:19:56.334Z,12.90
2022-12-12T17:22:30.590Z,12.80
2022-12-12T17:25:01.062Z,11.10
2022-12-12T17:27:31.623Z,13.30
2022-12-12T17:30:06.098Z,12.00
2022-12-12T17:32:38.513Z,12.70
2022-12-12T17:35:11.684Z,10.60
2022-12-12T17:37:49.698Z,14.10
2022-12-12T17:40:21.322Z,10.90
2022-12-12T17:42:52.594Z,14.70
2022-12-12T17:45:23.909Z,13.60
2022-12-12T17:48:00.916Z,13.00
2022-12-12T17:50:37.108Z,13.70
2022-12-12T17:53:17.025Z,12.60
2022-12-12T17:56:18.209Z,12.50
2022-12-12T17:58:51.609Z,13.60
2022-12-12T18:01:31.981Z,10.90
2022-12-12T18:04:07.408Z,8.50
2022-12-12T18:06:38.214Z,9.50
2022-12-12T18:09:09.095Z,8.10
2022-12-12T18:11:44.410Z,10.00
2022-12-12T18:14:20.902Z,8.80
2022-12-12T18:16:53.520Z,10.20
2022-12-12T18:19:30.358Z,10.10
2022-12-12T18:22:02.353Z,12.00
2022-12-12T18:24:37.340Z,10.20
2022-12-12T18:27:11.423Z,8.10
2022-12-12T18:29:43.093Z,10.70
2022-12-12T18:32:19.672Z,8.40
2022-12-12T18:34:52.966Z,9.80
2022-12-12T18:37:24.944Z,9.70
2022-12-12T18:39:58.174Z,12.30
2022-12-12T18:42:37.307Z,10.90
2022-12-12T18:45:12.740Z,12.90
2022-12-12T18:47:50.261Z,17.30
2022-12-12T18:50:24.384Z,16.50
2022-12-12T18:52:58.568Z,12.40
2022-12-12T18:55:31.534Z,11.00
2022-12-12T18:58:05.194Z,14.70
2022-12-12T19:00:43.315Z,11.90
2022-12-12T19:03:18.266Z,18.80
2022-12-12T19:05:50.992Z,14.40
2022-12-12T19:08:28.643Z,17.00
2022-12-12T19:11:04.294Z,19.50
2022-12-12T19:13:45.558Z,17.70
2022-12-12T19:16:23.688Z,11.60
2022-12-12T19:19:02.200Z,16.40
2022-12-12T19:21:35.857Z,12.60
2022-12-12T19:24:13.178Z,9.70
2022-12-12T19:26:52.146Z,9.00
2022-12-12T19:29:30.939Z,11.40
2022-12-12T19:32:06.226Z,13.10
2022-12-12T19:34:42.984Z,11.40
2022-12-12T19:37:18.233Z,12.10
2022-12-12T19:39:52.444Z,10.80
2022-12-12T19:42:25.068Z,11.20
2022-12-12T19:45:02.381Z,10.10
2022-12-12T19:47:37.976Z,9.50
2022-12-12T19:50:19.236Z,11.20
2022-12-12T19:52:51.797Z,12.20
2022-12-12T19:55:28.687Z,15.90
2022-12-12T19:58:01.459Z,12.20
2022-12-12T20:00:35.354Z,10.70
2022-12-12T20:03:11.917Z,11.20
2022-12-12T20:05:45.888Z,9.40
2022-12-12T20:08:21.828Z,8.60
2022-12-12T20:10:57.965Z,8.50
2022-12-12T20:13:29.789Z,8.30
2022-12-12T20:16:16.360Z,8.90
2022-12-12T20:18:50.057Z,8.30
2022-12-12T20:21:58.966Z,7.80
2022-12-12T20:24:21.077Z,8.00
2022-12-12T20:26:56.739Z,7.40
2022-12-12T20:29:34.121Z,6.40
2022-12-12T20:32:08.026Z,6.50
2022-12-12T20:34:41.028Z,5.90
2022-12-12T20:37:16.728Z,6.10
2022-12-12T20:39:53.575Z,6.80
2022-12-12T20:42:27.877Z,5.60
2022-12-12T20:45:01.716Z,8.20
2022-12-12T20:47:35.207Z,6.30
2022-12-12T20:50:10.376Z,6.10
2022-12-12T20:52:42.389Z,7.50
2022-12-12T20:55:14.181Z,5.70
2022-12-12T20:58:00.562Z,7.30
2022-12-12T21:00:32.017Z,7.20
2022-12-12T21:03:03.798Z,5.70
2022-12-12T21:05:37.777Z,5.60
2022-12-12T21:08:09.476Z,6.00
2022-12-12T21:10:40.426Z,7.10
2022-12-12T21:13:15.150Z,7.50
2022-12-12T21:15:46.577Z,7.90
2022-12-12T21:18:22.539Z,7.50
2022-12-12T21:20:54.157Z,7.50
2022-12-12T21:23:25.323Z,6.90
2022-12-12T21:25:56.006Z,7.70
2022-12-12T21:28:26.687Z,9.10
2022-12-12T21:30:58.329Z,7.90
2022-12-12T21:33:30.100Z,6.30
2022-12-12T21:36:09.834Z,5.60
2022-12-12T21:38:41.735Z,7.80
2022-12-12T21:41:17.536Z,8.90
2022-12-12T21:43:54.541Z,8.20
2022-12-12T21:46:27.695Z,7.10
2022-12-12T21:49:16.485Z,7.00
2022-12-12T21:51:49.735Z,6.90
2022-12-12T21:54:20.187Z,8.80
2022-12-12T21:56:53.645Z,10.70
2022-12-12T21:59:27.168Z,9.90
2022-12-12T22:02:09.319Z,12.50
2022-12-12T22:04:41.337Z,5.70
2022-12-12T22:07:15.574Z,5.10
2022-12-12T22:09:57.395Z,6.10
2022-12-12T22:15:07.054Z,9.10
2022-12-12T22:17:37.433Z,8.40
2022-12-12T22:20:08.019Z,6.40
2022-12-12T22:22:39.529Z,6.50
2022-12-12T22:25:10.068Z,7.10
2022-12-12T22:27:40.501Z,7.10
2022-12-12T22:30:14.177Z,5.40
2022-12-12T22:32:47.088Z,5.60
2022-12-12T22:35:17.581Z,5.60
2022-12-12T22:37:50.907Z,7.30
2022-12-12T22:40:25.417Z,7.80
2022-12-12T22:42:57.208Z,6.70
2022-12-12T22:45:27.714Z,7.10
2022-12-12T22:47:58.205Z,7.60
2022-12-12T22:50:28.962Z,7.10
2022-12-12T22:52:59.545Z,7.00
2022-12-12T22:55:36.666Z,7.10
2022-12-12T22:58:08.698Z,7.40
2022-12-12T23:00:39.106Z,7.80
2022-12-12T23:03:13.437Z,6.70
2022-12-12T23:05:46.213Z,6.50
2022-12-12T23:08:17.944Z,5.40
2022-12-12T23:10:48.495Z,5.60
2022-12-12T23:13:19.076Z,4.80
2022-12-12T23:15:53.473Z,5.50
2022-12-12T23:18:24.215Z,4.70
2022-12-12T23:20:55.038Z,4.90
2022-12-12T23:23:25.873Z,5.40
2022-12-12T23:25:56.837Z,5.80
2022-12-12T23:28:27.818Z,5.40
2022-12-12T23:31:01.934Z,5.90
2022-12-12T23:33:32.379Z,5.80
2022-12-12T23:36:03.126Z,5.90
2022-12-12T23:38:36.527Z,6.30
2022-12-12T23:41:19.667Z,6.00
2022-12-12T23:43:54.036Z,6.30
2022-12-12T23:46:32.839Z,6.00
2022-12-12T23:49:10.138Z,6.20
2022-12-12T23:51:50.257Z,5.80
2022-12-12T23:54:24.241Z,5.90
2022-12-12T23:56:56.999Z,6.40
2022-12-12T23:59:28.140Z,6.30
